Dog Valley, California Weather observations

Data are for 10 minute period ending at time listed.
 Day   Time    Ave.   Ave.  Ave.  Vector   Max.   Total    Solar   
  of    of     Air    Rel.  Wind   Wind    Wind  Precip.   Rad.    
Year   Day     Temp.  Hum.  Speed  Dir.    Gust                    
2017   (PST)    F      %     mph   deg.    mph     in.     W/m2    
------------------------------------------------------------------- 
  35   22:00   35.0    81    3.0   274     13.0   32.86       0  
  35   23:00   34.0    81    2.0   260     12.0   32.86       0  
  36    0:00   34.0    76    3.0   242     14.0   32.86       0  
  36    1:00   34.0    74    3.0   281     12.0   32.86       0  
  36    2:00   32.0    79    0.0   150     12.0   32.86       0  
  36    3:00   31.0    79    1.0   155     13.0   32.86       0  
  36    4:00   30.0    77    1.0   137      6.0   32.86       0  
  36    5:00   31.0    75    1.0   180      4.0   32.86       0  
  36    6:00   29.0    79    0.0   246      2.0   32.86       0  
  36    7:00   30.0    76    0.0   220      5.0   32.86       0  
  36    8:00   33.0    67    1.0   204      5.0   32.86      19  
  36    9:00   39.0    54    1.0   165      6.0   32.86      88  
  36   10:00   43.0    44    1.0   184      6.0   32.87     192  
  36   11:00   46.0    41    3.0   185     12.0   32.87     219  
  36   12:00   48.0    41    3.0   164     11.0   32.87     243  
  36   13:00   49.0    41    3.0   159     11.0   32.87     463  
  36   14:00   49.0    40    3.0   180     16.0   32.87     385  
  36   15:00   45.0    46    3.0   185     11.0   32.87     173  
  36   16:00   44.0    46    2.0   190     11.0   32.87     166  
  36   17:00   41.0    46    3.0   187     13.0   32.87      32  
  36   18:00   37.0    61    1.0   169     12.0   32.87      11  
  36   19:00   37.0    52    2.0   200     12.0   32.87       0  
  36   20:00   31.0    94    1.0   182     16.0   32.87       0  
  36   21:00   31.0    97    1.0   153     10.0   32.87       0  

Return to Dog Valley, California graphs page.


Western Regional Climate Center,wrcc@dri.edu